sensor_id;sensor_type;location;lat;lon;timestamp;pressure;altitude;pressure_sealevel;temperature;humidity
59873;BME280;50750;51.636;4.948;2023-10-08T00:00:47;102447.04;;;20.53;60.97
59873;BME280;50750;51.636;4.948;2023-10-08T00:03:40;102439.59;;;20.52;61.08
59873;BME280;50750;51.636;4.948;2023-10-08T00:06:07;102439.59;;;20.52;61.14
59873;BME280;50750;51.636;4.948;2023-10-08T00:08:38;102447.62;;;20.51;60.99
59873;BME280;50750;51.636;4.948;2023-10-08T00:11:05;102445.50;;;20.51;61.15
59873;BME280;50750;51.636;4.948;2023-10-08T00:13:37;102443.41;;;20.50;61.01
59873;BME280;50750;51.636;4.948;2023-10-08T00:16:08;102452.46;;;20.51;61.12
59873;BME280;50750;51.636;4.948;2023-10-08T00:18:38;102459.03;;;20.51;61.03
59873;BME280;50750;51.636;4.948;2023-10-08T00:21:07;102457.23;;;20.52;60.97
59873;BME280;50750;51.636;4.948;2023-10-08T00:23:37;102466.46;;;20.52;61.08
59873;BME280;50750;51.636;4.948;2023-10-08T00:26:08;102460.02;;;20.53;60.95
59873;BME280;50750;51.636;4.948;2023-10-08T00:28:35;102464.11;;;20.54;60.83
59873;BME280;50750;51.636;4.948;2023-10-08T00:31:02;102463.87;;;20.55;61.05
59873;BME280;50750;51.636;4.948;2023-10-08T00:33:39;102464.95;;;20.55;60.89
59873;BME280;50750;51.636;4.948;2023-10-08T00:36:05;102456.92;;;20.55;61.13
59873;BME280;50750;51.636;4.948;2023-10-08T00:38:43;102462.28;;;20.55;60.94
59873;BME280;50750;51.636;4.948;2023-10-08T00:41:14;102462.63;;;20.55;60.82
59873;BME280;50750;51.636;4.948;2023-10-08T00:43:48;102460.51;;;20.55;60.93
59873;BME280;50750;51.636;4.948;2023-10-08T00:46:16;102464.77;;;20.55;60.90
59873;BME280;50750;51.636;4.948;2023-10-08T00:49:03;102465.66;;;20.55;60.90
59873;BME280;50750;51.636;4.948;2023-10-08T00:51:50;102463.93;;;20.54;60.95
59873;BME280;50750;51.636;4.948;2023-10-08T00:54:27;102458.96;;;20.54;60.97
59873;BME280;50750;51.636;4.948;2023-10-08T00:56:59;102447.75;;;20.53;60.86
59873;BME280;50750;51.636;4.948;2023-10-08T00:59:32;102447.60;;;20.52;60.92
59873;BME280;50750;51.636;4.948;2023-10-08T01:02:11;102444.61;;;20.51;60.80
59873;BME280;50750;51.636;4.948;2023-10-08T01:04:41;102448.56;;;20.50;60.91
59873;BME280;50750;51.636;4.948;2023-10-08T01:07:12;102443.23;;;20.50;60.89
59873;BME280;50750;51.636;4.948;2023-10-08T01:09:42;102442.55;;;20.50;61.01
59873;BME280;50750;51.636;4.948;2023-10-08T01:12:16;102435.45;;;20.49;61.05
59873;BME280;50750;51.636;4.948;2023-10-08T01:14:48;102425.13;;;20.49;61.02
59873;BME280;50750;51.636;4.948;2023-10-08T01:17:23;102424.14;;;20.48;60.86
59873;BME280;50750;51.636;4.948;2023-10-08T01:19:58;102419.92;;;20.46;61.09
59873;BME280;50750;51.636;4.948;2023-10-08T01:22:47;102424.38;;;20.47;61.03
59873;BME280;50750;51.636;4.948;2023-10-08T01:25:14;102419.79;;;20.46;61.13
59873;BME280;50750;51.636;4.948;2023-10-08T01:27:48;102418.48;;;20.47;60.90
59873;BME280;50750;51.636;4.948;2023-10-08T01:30:15;102416.46;;;20.48;61.03
59873;BME280;50750;51.636;4.948;2023-10-08T01:32:44;102417.86;;;20.49;61.18
59873;BME280;50750;51.636;4.948;2023-10-08T01:35:11;102426.73;;;20.49;61.04
59873;BME280;50750;51.636;4.948;2023-10-08T01:37:50;102429.39;;;20.50;60.94
59873;BME280;50750;51.636;4.948;2023-10-08T01:40:17;102431.14;;;20.50;60.89
59873;BME280;50750;51.636;4.948;2023-10-08T01:42:44;102436.82;;;20.50;60.97
59873;BME280;50750;51.636;4.948;2023-10-08T01:45:11;102442.70;;;20.51;60.93
59873;BME280;50750;51.636;4.948;2023-10-08T01:47:46;102445.55;;;20.50;60.98
59873;BME280;50750;51.636;4.948;2023-10-08T01:50:17;102454.07;;;20.51;60.93
59873;BME280;50750;51.636;4.948;2023-10-08T01:52:55;102452.65;;;20.50;60.88
59873;BME280;50750;51.636;4.948;2023-10-08T01:55:22;102457.66;;;20.50;60.88
59873;BME280;50750;51.636;4.948;2023-10-08T01:57:50;102455.02;;;20.49;60.89
59873;BME280;50750;51.636;4.948;2023-10-08T02:00:20;102455.73;;;20.49;60.93
59873;BME280;50750;51.636;4.948;2023-10-08T02:02:47;102461.63;;;20.49;60.92
59873;BME280;50750;51.636;4.948;2023-10-08T02:05:17;102461.83;;;20.48;60.89
59873;BME280;50750;51.636;4.948;2023-10-08T02:07:45;102461.86;;;20.48;60.92
59873;BME280;50750;51.636;4.948;2023-10-08T02:10:12;102455.64;;;20.48;60.98
59873;BME280;50750;51.636;4.948;2023-10-08T02:12:40;102457.45;;;20.47;60.97
59873;BME280;50750;51.636;4.948;2023-10-08T02:15:08;102459.62;;;20.46;60.98
59873;BME280;50750;51.636;4.948;2023-10-08T02:17:37;102451.31;;;20.45;60.83
59873;BME280;50750;51.636;4.948;2023-10-08T02:20:05;102455.05;;;20.45;61.02
59873;BME280;50750;51.636;4.948;2023-10-08T02:22:31;102455.61;;;20.45;60.91
59873;BME280;50750;51.636;4.948;2023-10-08T02:25:02;102447.43;;;20.44;61.00
59873;BME280;50750;51.636;4.948;2023-10-08T02:27:29;102453.11;;;20.44;61.01
59873;BME280;50750;51.636;4.948;2023-10-08T02:29:59;102461.10;;;20.45;61.00
59873;BME280;50750;51.636;4.948;2023-10-08T02:32:26;102469.97;;;20.45;60.95
59873;BME280;50750;51.636;4.948;2023-10-08T02:34:52;102474.91;;;20.46;61.08
59873;BME280;50750;51.636;4.948;2023-10-08T02:37:18;102479.69;;;20.47;60.86
59873;BME280;50750;51.636;4.948;2023-10-08T02:39:45;102480.38;;;20.48;61.21
59873;BME280;50750;51.636;4.948;2023-10-08T02:42:13;102480.52;;;20.48;60.87
59873;BME280;50750;51.636;4.948;2023-10-08T02:44:40;102479.10;;;20.48;60.87
59873;BME280;50750;51.636;4.948;2023-10-08T02:47:09;102483.55;;;20.48;60.96
59873;BME280;50750;51.636;4.948;2023-10-08T02:49:38;102481.77;;;20.48;60.90
59873;BME280;50750;51.636;4.948;2023-10-08T02:52:07;102482.32;;;20.48;60.87
59873;BME280;50750;51.636;4.948;2023-10-08T02:54:35;102478.06;;;20.48;60.89
59873;BME280;50750;51.636;4.948;2023-10-08T02:57:04;102482.72;;;20.47;60.81
59873;BME280;50750;51.636;4.948;2023-10-08T02:59:31;102479.34;;;20.47;60.89
59873;BME280;50750;51.636;4.948;2023-10-08T03:02:09;102474.94;;;20.46;60.86
59873;BME280;50750;51.636;4.948;2023-10-08T03:04:42;102482.27;;;20.45;60.89
59873;BME280;50750;51.636;4.948;2023-10-08T03:07:12;102484.77;;;20.45;60.99
59873;BME280;50750;51.636;4.948;2023-10-08T03:09:48;102487.45;;;20.44;61.03
59873;BME280;50750;51.636;4.948;2023-10-08T03:12:29;102488.02;;;20.44;61.04
59873;BME280;50750;51.636;4.948;2023-10-08T03:14:59;102489.28;;;20.44;60.99
59873;BME280;50750;51.636;4.948;2023-10-08T03:17:38;102491.80;;;20.43;61.07
59873;BME280;50750;51.636;4.948;2023-10-08T03:20:06;102486.50;;;20.42;60.98
59873;BME280;50750;51.636;4.948;2023-10-08T03:22:51;102485.63;;;20.42;61.03
59873;BME280;50750;51.636;4.948;2023-10-08T03:25:18;102487.43;;;20.41;60.95
59873;BME280;50750;51.636;4.948;2023-10-08T03:27:45;102490.10;;;20.41;61.06
59873;BME280;50750;51.636;4.948;2023-10-08T03:30:11;102484.39;;;20.41;61.06
59873;BME280;50750;51.636;4.948;2023-10-08T03:32:41;102487.40;;;20.42;61.01
59873;BME280;50750;51.636;4.948;2023-10-08T03:35:11;102486.52;;;20.42;61.02
59873;BME280;50750;51.636;4.948;2023-10-08T03:37:39;102485.61;;;20.42;60.91
59873;BME280;50750;51.636;4.948;2023-10-08T03:40:12;102480.61;;;20.42;61.01
59873;BME280;50750;51.636;4.948;2023-10-08T03:42:51;102482.58;;;20.43;60.97
59873;BME280;50750;51.636;4.948;2023-10-08T03:45:22;102479.02;;;20.42;60.92
59873;BME280;50750;51.636;4.948;2023-10-08T03:48:09;102479.88;;;20.43;61.03
59873;BME280;50750;51.636;4.948;2023-10-08T03:50:41;102478.80;;;20.43;60.79
59873;BME280;50750;51.636;4.948;2023-10-08T03:53:08;102473.83;;;20.43;61.03
59873;BME280;50750;51.636;4.948;2023-10-08T03:55:42;102469.02;;;20.43;61.04
59873;BME280;50750;51.636;4.948;2023-10-08T03:58:10;102480.78;;;20.43;61.06
59873;BME280;50750;51.636;4.948;2023-10-08T04:00:43;102493.94;;;20.43;61.01
59873;BME280;50750;51.636;4.948;2023-10-08T04:03:12;102500.91;;;20.42;60.79
59873;BME280;50750;51.636;4.948;2023-10-08T04:05:38;102494.52;;;20.41;61.02
59873;BME280;50750;51.636;4.948;2023-10-08T04:08:26;102498.27;;;20.41;61.10
59873;BME280;50750;51.636;4.948;2023-10-08T04:11:21;102506.15;;;20.41;60.97
59873;BME280;50750;51.636;4.948;2023-10-08T04:14:02;102523.95;;;20.40;61.00
59873;BME280;50750;51.636;4.948;2023-10-08T04:16:29;102524.15;;;20.40;60.89
59873;BME280;50750;51.636;4.948;2023-10-08T04:18:56;102527.56;;;20.39;60.95
59873;BME280;50750;51.636;4.948;2023-10-08T04:21:23;102526.68;;;20.39;60.99
59873;BME280;50750;51.636;4.948;2023-10-08T04:23:54;102523.13;;;20.39;61.01
59873;BME280;50750;51.636;4.948;2023-10-08T04:26:24;102523.15;;;20.38;61.14
59873;BME280;50750;51.636;4.948;2023-10-08T04:28:52;102525.13;;;20.38;61.16
59873;BME280;50750;51.636;4.948;2023-10-08T04:31:29;102527.22;;;20.39;61.01
59873;BME280;50750;51.636;4.948;2023-10-08T04:34:04;102521.34;;;20.39;61.12
59873;BME280;50750;51.636;4.948;2023-10-08T04:36:36;102525.77;;;20.40;61.07
59873;BME280;50750;51.636;4.948;2023-10-08T04:39:06;102533.36;;;20.40;61.12
59873;BME280;50750;51.636;4.948;2023-10-08T04:41:42;102538.31;;;20.41;61.02
59873;BME280;50750;51.636;4.948;2023-10-08T04:44:09;102546.67;;;20.42;61.09
59873;BME280;50750;51.636;4.948;2023-10-08T04:46:43;102545.59;;;20.42;60.91
59873;BME280;50750;51.636;4.948;2023-10-08T04:49:16;102547.19;;;20.42;61.02
59873;BME280;50750;51.636;4.948;2023-10-08T04:51:59;102554.48;;;20.42;60.83
59873;BME280;50750;51.636;4.948;2023-10-08T04:54:27;102554.48;;;20.42;60.96
59873;BME280;50750;51.636;4.948;2023-10-08T04:57:01;102555.91;;;20.42;60.95
59873;BME280;50750;51.636;4.948;2023-10-08T04:59:28;102557.35;;;20.41;60.93
59873;BME280;50750;51.636;4.948;2023-10-08T05:02:04;102555.20;;;20.41;60.93
59873;BME280;50750;51.636;4.948;2023-10-08T05:04:51;102553.98;;;20.41;61.12
59873;BME280;50750;51.636;4.948;2023-10-08T05:07:20;102544.77;;;20.40;60.96
59873;BME280;50750;51.636;4.948;2023-10-08T05:09:48;102538.75;;;20.40;60.90
59873;BME280;50750;51.636;4.948;2023-10-08T05:12:29;102539.13;;;20.39;60.96
59873;BME280;50750;51.636;4.948;2023-10-08T05:14:59;102541.81;;;20.39;60.95
59873;BME280;50750;51.636;4.948;2023-10-08T05:17:44;102544.31;;;20.38;60.95
59873;BME280;50750;51.636;4.948;2023-10-08T05:20:14;102546.33;;;20.37;60.94
59873;BME280;50750;51.636;4.948;2023-10-08T05:22:46;102558.81;;;20.36;60.98
59873;BME280;50750;51.636;4.948;2023-10-08T05:25:21;102565.04;;;20.36;61.07
59873;BME280;50750;51.636;4.948;2023-10-08T05:27:52;102574.34;;;20.36;61.01
59873;BME280;50750;51.636;4.948;2023-10-08T05:30:20;102580.44;;;20.35;60.96
59873;BME280;50750;51.636;4.948;2023-10-08T05:33:04;102581.72;;;20.33;61.00
59873;BME280;50750;51.636;4.948;2023-10-08T05:35:44;102575.67;;;20.33;61.01
59873;BME280;50750;51.636;4.948;2023-10-08T05:38:13;102570.52;;;20.33;61.08
59873;BME280;50750;51.636;4.948;2023-10-08T05:40:43;102572.63;;;20.34;61.12
59873;BME280;50750;51.636;4.948;2023-10-08T05:43:42;102568.53;;;20.34;61.14
59873;BME280;50750;51.636;4.948;2023-10-08T05:46:09;102562.39;;;20.36;60.94
59873;BME280;50750;51.636;4.948;2023-10-08T05:48:45;102562.58;;;20.36;61.00
59873;BME280;50750;51.636;4.948;2023-10-08T05:51:17;102559.52;;;20.37;61.07
59873;BME280;50750;51.636;4.948;2023-10-08T05:54:15;102555.23;;;20.37;60.96
59873;BME280;50750;51.636;4.948;2023-10-08T05:56:54;102555.58;;;20.37;61.00
59873;BME280;50750;51.636;4.948;2023-10-08T06:02:29;102533.70;;;20.37;60.97
59873;BME280;50750;51.636;4.948;2023-10-08T06:05:01;102533.71;;;20.37;61.15
59873;BME280;50750;51.636;4.948;2023-10-08T06:07:44;102532.64;;;20.36;61.04
59873;BME280;50750;51.636;4.948;2023-10-08T06:10:28;102537.30;;;20.36;60.97
59873;BME280;50750;51.636;4.948;2023-10-08T06:13:05;102542.49;;;20.35;61.08
59873;BME280;50750;51.636;4.948;2023-10-08T06:15:47;102554.64;;;20.34;61.07
59873;BME280;50750;51.636;4.948;2023-10-08T06:18:18;102567.64;;;20.34;60.97
59873;BME280;50750;51.636;4.948;2023-10-08T06:20:46;102564.45;;;20.34;61.02
59873;BME280;50750;51.636;4.948;2023-10-08T06:23:15;102570.17;;;20.33;60.91
59873;BME280;50750;51.636;4.948;2023-10-08T06:25:45;102572.85;;;20.33;61.01
59873;BME280;50750;51.636;4.948;2023-10-08T06:28:15;102566.30;;;20.32;61.03
59873;BME280;50750;51.636;4.948;2023-10-08T06:33:13;102566.88;;;20.31;60.99
59873;BME280;50750;51.636;4.948;2023-10-08T06:35:40;102570.11;;;20.30;61.02
59873;BME280;50750;51.636;4.948;2023-10-08T06:38:33;102578.64;;;20.30;61.12
59873;BME280;50750;51.636;4.948;2023-10-08T06:41:02;102581.85;;;20.31;61.16
59873;BME280;50750;51.636;4.948;2023-10-08T06:43:36;102584.84;;;20.32;61.09
59873;BME280;50750;51.636;4.948;2023-10-08T06:46:04;102588.35;;;20.33;60.97
59873;BME280;50750;51.636;4.948;2023-10-08T06:48:33;102597.02;;;20.33;61.09
59873;BME280;50750;51.636;4.948;2023-10-08T06:51:01;102601.98;;;20.34;61.07
59873;BME280;50750;51.636;4.948;2023-10-08T06:53:34;102604.61;;;20.35;61.00
59873;BME280;50750;51.636;4.948;2023-10-08T06:56:00;102601.23;;;20.35;61.03
59873;BME280;50750;51.636;4.948;2023-10-08T06:58:36;102603.90;;;20.35;60.83
59873;BME280;50750;51.636;4.948;2023-10-08T07:01:03;102599.62;;;20.35;60.92
59873;BME280;50750;51.636;4.948;2023-10-08T07:03:36;102601.91;;;20.36;61.10
59873;BME280;50750;51.636;4.948;2023-10-08T07:06:04;102600.33;;;20.35;61.00
59873;BME280;50750;51.636;4.948;2023-10-08T07:08:45;102606.92;;;20.35;60.82
59873;BME280;50750;51.636;4.948;2023-10-08T07:11:22;102611.91;;;20.35;60.92
59873;BME280;50750;51.636;4.948;2023-10-08T07:13:48;102614.77;;;20.34;61.00
59873;BME280;50750;51.636;4.948;2023-10-08T07:16:17;102617.83;;;20.34;61.04
59873;BME280;50750;51.636;4.948;2023-10-08T07:18:44;102620.68;;;20.34;61.06
59873;BME280;50750;51.636;4.948;2023-10-08T07:21:19;102619.42;;;20.34;61.08
59873;BME280;50750;51.636;4.948;2023-10-08T07:23:56;102620.87;;;20.33;61.07
59873;BME280;50750;51.636;4.948;2023-10-08T07:26:23;102629.06;;;20.33;60.97
59873;BME280;50750;51.636;4.948;2023-10-08T07:28:50;102626.25;;;20.32;61.06
59873;BME280;50750;51.636;4.948;2023-10-08T07:31:22;102627.89;;;20.32;60.96
59873;BME280;50750;51.636;4.948;2023-10-08T07:33:54;102627.92;;;20.31;60.93
59873;BME280;50750;51.636;4.948;2023-10-08T07:36:25;102628.64;;;20.30;60.99
59873;BME280;50750;51.636;4.948;2023-10-08T07:38:53;102626.70;;;20.30;61.04
59873;BME280;50750;51.636;4.948;2023-10-08T07:41:20;102627.95;;;20.30;61.20
59873;BME280;50750;51.636;4.948;2023-10-08T07:43:48;102631.31;;;20.30;61.11
59873;BME280;50750;51.636;4.948;2023-10-08T07:46:25;102628.64;;;20.31;60.86
59873;BME280;50750;51.636;4.948;2023-10-08T07:48:55;102625.05;;;20.31;60.94
59873;BME280;50750;51.636;4.948;2023-10-08T07:51:24;102621.30;;;20.32;60.89
59873;BME280;50750;51.636;4.948;2023-10-08T07:53:51;102627.12;;;20.33;60.96
59873;BME280;50750;51.636;4.948;2023-10-08T07:56:23;102632.94;;;20.34;61.07
59873;BME280;50750;51.636;4.948;2023-10-08T07:58:53;102637.73;;;20.34;60.96
59873;BME280;50750;51.636;4.948;2023-10-08T08:01:23;102642.34;;;20.35;61.06
59873;BME280;50750;51.636;4.948;2023-10-08T08:03:51;102652.29;;;20.35;61.00
59873;BME280;50750;51.636;4.948;2023-10-08T08:06:17;102657.11;;;20.35;60.96
59873;BME280;50750;51.636;4.948;2023-10-08T08:08:44;102661.95;;;20.34;60.99
59873;BME280;50750;51.636;4.948;2023-10-08T08:11:10;102666.23;;;20.33;61.06
59873;BME280;50750;51.636;4.948;2023-10-08T08:13:46;102672.46;;;20.33;60.94
59873;BME280;50750;51.636;4.948;2023-10-08T08:16:14;102678.34;;;20.33;61.03
59873;BME280;50750;51.636;4.948;2023-10-08T08:18:49;102687.62;;;20.33;60.96
59873;BME280;50750;51.636;4.948;2023-10-08T08:21:16;102684.43;;;20.32;61.17
59873;BME280;50750;51.636;4.948;2023-10-08T08:23:46;102682.86;;;20.32;61.04
59873;BME280;50750;51.636;4.948;2023-10-08T08:26:23;102687.33;;;20.31;61.04
59873;BME280;50750;51.636;4.948;2023-10-08T08:28:54;102697.30;;;20.31;61.12
59873;BME280;50750;51.636;4.948;2023-10-08T08:31:24;102698.56;;;20.30;61.04
59873;BME280;50750;51.636;4.948;2023-10-08T08:33:53;102701.06;;;20.30;61.14
59873;BME280;50750;51.636;4.948;2023-10-08T08:36:23;102706.07;;;20.29;61.05
59873;BME280;50750;51.636;4.948;2023-10-08T08:38:50;102705.52;;;20.30;61.16
59873;BME280;50750;51.636;4.948;2023-10-08T08:41:17;102704.31;;;20.29;61.25
59873;BME280;50750;51.636;4.948;2023-10-08T08:43:52;102709.13;;;20.29;61.27
59873;BME280;50750;51.636;4.948;2023-10-08T08:46:31;102703.40;;;20.29;61.16
59873;BME280;50750;51.636;4.948;2023-10-08T08:49:02;102704.59;;;20.31;61.23
59873;BME280;50750;51.636;4.948;2023-10-08T08:51:30;102704.58;;;20.32;61.23
59873;BME280;50750;51.636;4.948;2023-10-08T08:53:57;102705.77;;;20.32;61.19
59873;BME280;50750;51.636;4.948;2023-10-08T08:56:27;102710.16;;;20.34;61.07
59873;BME280;50750;51.636;4.948;2023-10-08T08:58:55;102708.38;;;20.34;61.17
59873;BME280;50750;51.636;4.948;2023-10-08T09:01:21;102708.73;;;20.34;61.07
59873;BME280;50750;51.636;4.948;2023-10-08T09:03:49;102706.06;;;20.34;61.18
59873;BME280;50750;51.636;4.948;2023-10-08T09:06:16;102701.95;;;20.35;61.23
59873;BME280;50750;51.636;4.948;2023-10-08T09:08:43;102708.00;;;20.35;61.20
59873;BME280;50750;51.636;4.948;2023-10-08T09:11:16;102708.69;;;20.35;61.12
59873;BME280;50750;51.636;4.948;2023-10-08T09:13:43;102712.80;;;20.35;61.26
59873;BME280;50750;51.636;4.948;2023-10-08T09:16:14;102714.23;;;20.34;61.07
59873;BME280;50750;51.636;4.948;2023-10-08T09:18:46;102712.27;;;20.35;61.20
59873;BME280;50750;51.636;4.948;2023-10-08T09:21:15;102722.23;;;20.34;61.17
59873;BME280;50750;51.636;4.948;2023-10-08T09:23:43;102730.60;;;20.34;61.28
59873;BME280;50750;51.636;4.948;2023-10-08T09:26:10;102730.41;;;20.35;61.37
59873;BME280;50750;51.636;4.948;2023-10-08T09:28:44;102730.59;;;20.34;61.31
59873;BME280;50750;51.636;4.948;2023-10-08T09:31:13;102736.66;;;20.34;61.33
59873;BME280;50750;51.636;4.948;2023-10-08T09:33:40;102734.36;;;20.34;61.45
59873;BME280;50750;51.636;4.948;2023-10-08T09:36:09;102728.66;;;20.34;61.30
59873;BME280;50750;51.636;4.948;2023-10-08T09:38:45;102723.88;;;20.33;61.41
59873;BME280;50750;51.636;4.948;2023-10-08T09:41:15;102713.20;;;20.33;61.39
59873;BME280;50750;51.636;4.948;2023-10-08T09:43:42;102709.77;;;20.34;61.40
59873;BME280;50750;51.636;4.948;2023-10-08T09:46:18;102705.11;;;20.35;61.43
59873;BME280;50750;51.636;4.948;2023-10-08T09:48:51;102700.44;;;20.36;61.27
59873;BME280;50750;51.636;4.948;2023-10-08T09:51:21;102695.25;;;20.37;61.38
59873;BME280;50750;51.636;4.948;2023-10-08T09:56:36;102690.90;;;20.39;61.31
59873;BME280;50750;51.636;4.948;2023-10-08T09:59:06;102688.73;;;20.40;61.28
59873;BME280;50750;51.636;4.948;2023-10-08T10:01:37;102683.02;;;20.40;61.35
59873;BME280;50750;51.636;4.948;2023-10-08T10:04:11;102686.91;;;20.41;61.35
59873;BME280;50750;51.636;4.948;2023-10-08T10:06:38;102687.09;;;20.41;61.24
59873;BME280;50750;51.636;4.948;2023-10-08T10:09:06;102697.94;;;20.41;61.12
59873;BME280;50750;51.636;4.948;2023-10-08T10:11:48;102708.79;;;20.41;61.31
59873;BME280;50750;51.636;4.948;2023-10-08T10:14:16;102710.56;;;20.41;61.34
59873;BME280;50750;51.636;4.948;2023-10-08T10:16:48;102708.98;;;20.41;61.34
59873;BME280;50750;51.636;4.948;2023-10-08T10:19:20;102700.97;;;20.41;61.44
59873;BME280;50750;51.636;4.948;2023-10-08T10:21:46;102695.09;;;20.41;61.19
59873;BME280;50750;51.636;4.948;2023-10-08T10:24:42;102701.70;;;20.40;61.22
59873;BME280;50750;51.636;4.948;2023-10-08T10:27:14;102707.56;;;20.40;61.39
59873;BME280;50750;51.636;4.948;2023-10-08T10:29:44;102704.39;;;20.40;61.37
59873;BME280;50750;51.636;4.948;2023-10-08T10:32:12;102700.30;;;20.40;61.48
59873;BME280;50750;51.636;4.948;2023-10-08T10:34:43;102697.28;;;20.40;61.35
59873;BME280;50750;51.636;4.948;2023-10-08T10:37:10;102697.12;;;20.39;61.51
59873;BME280;50750;51.636;4.948;2023-10-08T10:39:52;102698.54;;;20.39;61.50
59873;BME280;50750;51.636;4.948;2023-10-08T10:42:26;102694.59;;;20.40;61.31
59873;BME280;50750;51.636;4.948;2023-10-08T10:44:54;102693.30;;;20.41;61.34
59873;BME280;50750;51.636;4.948;2023-10-08T10:47:23;102695.77;;;20.42;61.33
59873;BME280;50750;51.636;4.948;2023-10-08T10:49:53;102693.08;;;20.42;61.44
59873;BME280;50750;51.636;4.948;2023-10-08T10:52:32;102692.98;;;20.44;61.23
59873;BME280;50750;51.636;4.948;2023-10-08T10:55:01;102691.00;;;20.45;61.29
59873;BME280;50750;51.636;4.948;2023-10-08T10:57:47;102696.15;;;20.45;61.31
59873;BME280;50750;51.636;4.948;2023-10-08T11:00:23;102703.05;;;20.46;61.22
59873;BME280;50750;51.636;4.948;2023-10-08T11:03:00;102708.02;;;20.46;61.28
59873;BME280;50750;51.636;4.948;2023-10-08T11:05:31;102707.50;;;20.46;61.28
59873;BME280;50750;51.636;4.948;2023-10-08T11:08:00;102703.57;;;20.46;61.29
59873;BME280;50750;51.636;4.948;2023-10-08T11:10:31;102707.48;;;20.46;61.24
59873;BME280;50750;51.636;4.948;2023-10-08T11:12:58;102706.77;;;20.46;61.42
59873;BME280;50750;51.636;4.948;2023-10-08T11:15:28;102703.73;;;20.46;61.42
59873;BME280;50750;51.636;4.948;2023-10-08T11:18:07;102702.17;;;20.46;61.40
59873;BME280;50750;51.636;4.948;2023-10-08T11:20:35;102703.64;;;20.45;61.43
59873;BME280;50750;51.636;4.948;2023-10-08T11:23:34;102701.14;;;20.45;61.44
59873;BME280;50750;51.636;4.948;2023-10-08T11:26:03;102703.31;;;20.44;61.42
59873;BME280;50750;51.636;4.948;2023-10-08T11:28:33;102705.83;;;20.43;61.45
59873;BME280;50750;51.636;4.948;2023-10-08T11:31:04;102708.31;;;20.44;61.48
59873;BME280;50750;51.636;4.948;2023-10-08T11:33:42;102704.95;;;20.43;61.34
59873;BME280;50750;51.636;4.948;2023-10-08T11:36:09;102694.23;;;20.44;61.52
59873;BME280;50750;51.636;4.948;2023-10-08T11:38:46;102686.91;;;20.45;61.55
59873;BME280;50750;51.636;4.948;2023-10-08T11:41:17;102685.25;;;20.46;61.36
59873;BME280;50750;51.636;4.948;2023-10-08T11:43:51;102679.33;;;20.48;61.40
59873;BME280;50750;51.636;4.948;2023-10-08T11:46:27;102678.21;;;20.48;61.49
59873;BME280;50750;51.636;4.948;2023-10-08T11:48:59;102670.34;;;20.49;61.22
59873;BME280;50750;51.636;4.948;2023-10-08T11:51:35;102668.73;;;20.50;61.49
59873;BME280;50750;51.636;4.948;2023-10-08T11:54:02;102671.73;;;20.50;61.35
59873;BME280;50750;51.636;4.948;2023-10-08T11:56:31;102670.50;;;20.50;61.32
59873;BME280;50750;51.636;4.948;2023-10-08T11:59:01;102669.25;;;20.50;61.22
59873;BME280;50750;51.636;4.948;2023-10-08T12:01:31;102671.36;;;20.51;61.26
59873;BME280;50750;51.636;4.948;2023-10-08T12:04:01;102665.30;;;20.51;61.21
59873;BME280;50750;51.636;4.948;2023-10-08T12:06:28;102664.26;;;20.50;61.34
59873;BME280;50750;51.636;4.948;2023-10-08T12:08:59;102662.48;;;20.50;61.32
59873;BME280;50750;51.636;4.948;2023-10-08T12:11:25;102659.98;;;20.50;61.29
59873;BME280;50750;51.636;4.948;2023-10-08T12:13:59;102657.17;;;20.49;61.36
59873;BME280;50750;51.636;4.948;2023-10-08T12:16:26;102656.46;;;20.50;61.39
59873;BME280;50750;51.636;4.948;2023-10-08T12:18:56;102658.59;;;20.49;61.25
59873;BME280;50750;51.636;4.948;2023-10-08T12:21:29;102656.66;;;20.49;61.42
59873;BME280;50750;51.636;4.948;2023-10-08T12:24:00;102649.38;;;20.49;61.37
59873;BME280;50750;51.636;4.948;2023-10-08T12:26:31;102647.76;;;20.49;61.55
59873;BME280;50750;51.636;4.948;2023-10-08T12:28:57;102646.99;;;20.50;61.55
59873;BME280;50750;51.636;4.948;2023-10-08T12:31:24;102647.16;;;20.51;61.60
59873;BME280;50750;51.636;4.948;2023-10-08T12:33:51;102648.38;;;20.51;61.49
59873;BME280;50750;51.636;4.948;2023-10-08T12:36:23;102645.85;;;20.52;61.57
59873;BME280;50750;51.636;4.948;2023-10-08T12:38:50;102642.98;;;20.53;61.65
59873;BME280;50750;51.636;4.948;2023-10-08T12:41:26;102638.33;;;20.54;61.36
59873;BME280;50750;51.636;4.948;2023-10-08T12:43:53;102634.05;;;20.54;61.48
59873;BME280;50750;51.636;4.948;2023-10-08T12:46:21;102629.23;;;20.55;61.44
59873;BME280;50750;51.636;4.948;2023-10-08T12:48:51;102630.09;;;20.55;61.46
59873;BME280;50750;51.636;4.948;2023-10-08T12:51:21;102625.29;;;20.55;61.46
59873;BME280;50750;51.636;4.948;2023-10-08T12:53:53;102622.95;;;20.55;61.56
59873;BME280;50750;51.636;4.948;2023-10-08T12:56:30;102622.09;;;20.55;61.64
59873;BME280;50750;51.636;4.948;2023-10-08T12:59:06;102620.30;;;20.55;61.51
59873;BME280;50750;51.636;4.948;2023-10-08T13:01:35;102621.20;;;20.55;61.53
59873;BME280;50750;51.636;4.948;2023-10-08T13:04:07;102618.02;;;20.54;61.42
59873;BME280;50750;51.636;4.948;2023-10-08T13:06:34;102613.58;;;20.54;61.50
59873;BME280;50750;51.636;4.948;2023-10-08T13:09:04;102599.72;;;20.54;61.59
59873;BME280;50750;51.636;4.948;2023-10-08T13:11:36;102600.27;;;20.54;61.44
59873;BME280;50750;51.636;4.948;2023-10-08T13:14:05;102603.23;;;20.55;61.72
59873;BME280;50750;51.636;4.948;2023-10-08T13:16:32;102596.46;;;20.55;61.66
59873;BME280;50750;51.636;4.948;2023-10-08T13:18:59;102597.14;;;20.56;61.71
59873;BME280;50750;51.636;4.948;2023-10-08T13:21:26;102591.40;;;20.57;61.68